createdAt,value
2023-02-19T00:01:48.551Z,101112.91
2023-02-19T00:04:18.368Z,101121.06
2023-02-19T00:06:47.021Z,101111.41
2023-02-19T00:09:16.553Z,101108.59
2023-02-19T00:11:46.333Z,101113.63
2023-02-19T00:14:17.087Z,101109.59
2023-02-19T00:16:44.839Z,101115.59
2023-02-19T00:19:14.693Z,101115.91
2023-02-19T00:21:42.447Z,101119.94
2023-02-19T00:24:13.186Z,101111.81
2023-02-19T00:26:42.370Z,101115.59
2023-02-19T00:29:14.380Z,101120.38
2023-02-19T00:31:42.712Z,101123.16
2023-02-19T00:34:11.410Z,101110.03
2023-02-19T00:36:40.747Z,101105.41
2023-02-19T00:39:10.839Z,101099.25
2023-02-19T00:41:38.537Z,101100.38
2023-02-19T00:44:08.418Z,101095.63
2023-02-19T00:46:39.862Z,101109.06
2023-02-19T00:49:09.482Z,101101.22
2023-02-19T00:51:39.362Z,101106.84
2023-02-19T00:54:07.774Z,101109.63
2023-02-19T00:56:35.710Z,101104.44
2023-02-19T00:59:04.177Z,101103.72
2023-02-19T01:01:32.391Z,101121.94
2023-02-19T01:04:01.571Z,101120.53
2023-02-19T01:06:30.916Z,101122.38
2023-02-19T01:08:58.810Z,101127.53
2023-02-19T01:11:27.300Z,101109.31
2023-02-19T01:13:59.233Z,101106.38
2023-02-19T01:16:27.572Z,101095.38
2023-02-19T01:18:57.452Z,101094.66
2023-02-19T01:21:28.957Z,101102.63
2023-02-19T01:23:57.736Z,101084.72
2023-02-19T01:26:28.889Z,101098.41
2023-02-19T01:28:56.711Z,101101.22
2023-02-19T01:31:25.898Z,101098.13
2023-02-19T01:33:55.646Z,101105.56
2023-02-19T01:36:23.632Z,101095.63
2023-02-19T01:38:52.847Z,101093.09
2023-02-19T01:41:23.687Z,101078.81
2023-02-19T01:43:58.145Z,101070.72
2023-02-19T01:46:27.243Z,101064.13
2023-02-19T01:48:56.258Z,101066.78
2023-02-19T01:51:24.124Z,101081.63
2023-02-19T01:53:57.395Z,101079.13
2023-02-19T01:56:26.971Z,101080.38
2023-02-19T01:58:55.320Z,101071.59
2023-02-19T02:01:22.978Z,101064.44
2023-02-19T02:03:51.965Z,101065.16
2023-02-19T02:06:24.197Z,101067.13
2023-02-19T02:09:14.093Z,101063.19
2023-02-19T02:11:46.186Z,101059.56
2023-02-19T02:14:14.187Z,101045.00
2023-02-19T02:16:55.155Z,101058.28
2023-02-19T02:19:52.889Z,101063.19
2023-02-19T02:22:25.377Z,101061.09
2023-02-19T02:25:35.725Z,101054.53
2023-02-19T02:28:18.091Z,101052.88
2023-02-19T02:30:51.322Z,101043.91
2023-02-19T02:33:27.440Z,101034.38
2023-02-19T02:35:59.019Z,101022.63
2023-02-19T02:38:30.060Z,101016.75
2023-02-19T02:40:58.709Z,101015.06
2023-02-19T02:43:26.400Z,101028.50
2023-02-19T02:45:55.633Z,101028.34
2023-02-19T02:48:35.704Z,101020.81
2023-02-19T02:51:11.459Z,101016.38
2023-02-19T02:54:01.951Z,101034.13
2023-02-19T02:56:31.194Z,101040.28
2023-02-19T02:59:01.773Z,101018.72
2023-02-19T03:01:51.460Z,101002.50
2023-02-19T03:04:26.706Z,101016.22
2023-02-19T03:06:56.131Z,101015.22
2023-02-19T03:09:31.772Z,101012.75
2023-02-19T03:12:22.213Z,101017.88
2023-02-19T03:15:11.990Z,101016.22
2023-02-19T03:18:02.948Z,101013.97
2023-02-19T03:20:31.970Z,101019.31
2023-02-19T03:23:01.631Z,101011.72
2023-02-19T03:25:55.766Z,101003.09
2023-02-19T03:28:47.798Z,100997.22
2023-02-19T03:31:21.299Z,100999.44
2023-02-19T03:33:54.954Z,101020.41
2023-02-19T03:36:26.680Z,101011.31
2023-02-19T03:39:00.537Z,101006.97
2023-02-19T03:41:34.633Z,101010.03
2023-02-19T03:44:12.024Z,101005.13
2023-02-19T03:46:46.207Z,101003.31
2023-02-19T03:49:25.217Z,100997.53
2023-02-19T03:51:58.630Z,100998.28
2023-02-19T03:54:36.302Z,101007.25
2023-02-19T03:57:08.393Z,101010.91
2023-02-19T03:59:43.020Z,101016.34
2023-02-19T04:02:14.245Z,101031.28
2023-02-19T04:04:46.942Z,101027.81
2023-02-19T04:07:14.896Z,101041.91
2023-02-19T04:09:46.538Z,101038.28
2023-02-19T04:12:15.935Z,101031.72
2023-02-19T04:14:48.251Z,101028.78
2023-02-19T04:17:21.032Z,101026.78
2023-02-19T04:19:52.319Z,101034.38
2023-02-19T04:22:22.209Z,101028.06
2023-02-19T04:24:52.528Z,101051.56
2023-02-19T04:27:20.699Z,101029.63
2023-02-19T04:29:51.403Z,101019.25
2023-02-19T04:32:19.377Z,101017.44
2023-02-19T04:34:47.016Z,101016.75
2023-02-19T04:37:16.319Z,101015.19
2023-02-19T04:39:44.036Z,101018.16
2023-02-19T04:42:11.933Z,101029.63
2023-02-19T04:44:39.620Z,101025.56
2023-02-19T04:47:07.484Z,101038.03
2023-02-19T04:49:35.233Z,101041.16
2023-02-19T04:52:02.983Z,101051.63
2023-02-19T04:54:31.985Z,101050.78
2023-02-19T04:56:59.809Z,101052.31
2023-02-19T04:59:27.508Z,101040.44
2023-02-19T05:01:55.467Z,101046.72
2023-02-19T05:04:23.942Z,101048.69
2023-02-19T05:06:51.923Z,101043.34
2023-02-19T05:09:19.652Z,101053.47
2023-02-19T05:11:48.683Z,101059.31
2023-02-19T05:14:17.164Z,101064.94
2023-02-19T05:16:47.351Z,101073.88
2023-02-19T05:19:15.216Z,101074.84
2023-02-19T05:21:42.828Z,101076.09
2023-02-19T05:24:10.824Z,101077.06
2023-02-19T05:26:38.415Z,101084.78
2023-02-19T05:29:07.502Z,101089.50
2023-02-19T05:31:35.214Z,101096.81
2023-02-19T05:34:03.392Z,101086.19
2023-02-19T05:36:31.354Z,101074.53
2023-02-19T05:38:59.586Z,101069.09
2023-02-19T05:41:28.714Z,101069.91
2023-02-19T05:43:57.623Z,101073.84
2023-02-19T05:46:29.231Z,101072.44
2023-02-19T05:48:58.167Z,101080.00
2023-02-19T05:51:27.194Z,101076.63
2023-02-19T05:53:55.140Z,101074.69
2023-02-19T05:56:29.054Z,101080.28
2023-02-19T05:58:57.152Z,101080.72
2023-02-19T06:01:28.277Z,101086.69
2023-02-19T06:03:57.586Z,101104.88
2023-02-19T06:06:26.331Z,101113.25
2023-02-19T06:08:54.397Z,101108.38
2023-02-19T06:11:22.371Z,101100.69
2023-02-19T06:13:50.512Z,101113.84
2023-02-19T06:16:19.308Z,101119.72
2023-02-19T06:18:50.118Z,101105.47
2023-02-19T06:21:18.596Z,101108.66
2023-02-19T06:23:46.689Z,101109.38
2023-02-19T06:26:18.236Z,101119.00
2023-02-19T06:28:47.068Z,101124.88
2023-02-19T06:31:15.122Z,101131.03
2023-02-19T06:33:43.359Z,101132.47
2023-02-19T06:36:15.663Z,101129.81
2023-02-19T06:38:43.585Z,101131.19
2023-02-19T06:41:12.419Z,101139.03
2023-02-19T06:43:40.535Z,101143.69
2023-02-19T06:46:09.518Z,101147.44
2023-02-19T06:48:37.210Z,101146.34
2023-02-19T06:51:05.052Z,101154.56
2023-02-19T06:53:34.064Z,101160.44
2023-02-19T06:56:04.267Z,101175.41
2023-02-19T06:58:32.769Z,101167.28
2023-02-19T07:01:00.639Z,101165.06
2023-02-19T07:03:28.273Z,101176.53
2023-02-19T07:05:55.983Z,101180.31
2023-02-19T07:08:23.688Z,101177.38
2023-02-19T07:11:01.842Z,101178.78
2023-02-19T07:13:29.760Z,101185.50
2023-02-19T07:16:00.617Z,101188.44
2023-02-19T07:18:28.772Z,101189.66
2023-02-19T07:20:56.820Z,101186.16
2023-02-19T07:23:24.424Z,101175.41
2023-02-19T07:25:52.119Z,101175.97
2023-02-19T07:28:21.155Z,101169.38
2023-02-19T07:30:48.819Z,101169.81
2023-02-19T07:33:16.698Z,101177.66
2023-02-19T07:35:47.282Z,101186.63
2023-02-19T07:38:17.144Z,101197.91
2023-02-19T07:40:52.128Z,101206.91
2023-02-19T07:43:21.447Z,101206.34
2023-02-19T07:45:49.370Z,101206.06
2023-02-19T07:48:17.181Z,101208.56
2023-02-19T07:50:52.106Z,101214.72
2023-02-19T07:53:19.772Z,101228.31
2023-02-19T07:55:47.621Z,101224.50
2023-02-19T07:58:15.527Z,101225.50
2023-02-19T08:00:44.829Z,101219.75
2023-02-19T08:03:12.122Z,101226.06
2023-02-19T08:05:41.793Z,101236.28
2023-02-19T08:08:10.788Z,101234.44
2023-02-19T08:10:55.771Z,101231.78
2023-02-19T08:13:25.285Z,101237.25
2023-02-19T08:16:01.721Z,101246.34
2023-02-19T08:18:35.837Z,101259.22
2023-02-19T08:21:03.602Z,101254.31
2023-02-19T08:23:31.293Z,101261.88
2023-02-19T08:26:00.128Z,101261.28
2023-02-19T08:28:28.151Z,101268.41
2023-02-19T08:31:02.988Z,101267.31
2023-02-19T08:33:31.473Z,101274.56
2023-02-19T08:36:04.642Z,101276.09
2023-02-19T08:38:32.897Z,101269.34
2023-02-19T08:41:00.583Z,101277.06
2023-02-19T08:43:28.536Z,101286.25
2023-02-19T08:45:57.580Z,101291.25
2023-02-19T08:48:25.338Z,101284.31
2023-02-19T08:50:57.376Z,101293.75
2023-02-19T08:53:25.523Z,101299.63
2023-02-19T08:55:53.756Z,101304.69
2023-02-19T08:58:21.792Z,101307.78
2023-02-19T09:00:49.522Z,101325.78
2023-02-19T09:03:18.618Z,101326.00
2023-02-19T09:05:46.776Z,101329.13
2023-02-19T09:08:14.403Z,101331.69
2023-02-19T09:10:42.150Z,101328.22
2023-02-19T09:13:09.986Z,101329.84
2023-02-19T09:15:39.096Z,101321.59
2023-02-19T09:18:06.779Z,101316.13
2023-02-19T09:20:35.783Z,101318.31
2023-02-19T09:23:03.463Z,101317.44
2023-02-19T09:25:31.066Z,101308.00
2023-02-19T09:27:59.277Z,101312.53
2023-02-19T09:30:26.933Z,101311.28
2023-02-19T09:32:56.754Z,101329.50
2023-02-19T09:35:24.473Z,101336.91
2023-02-19T09:37:53.458Z,101341.25
2023-02-19T09:40:22.402Z,101342.72
2023-02-19T09:42:52.542Z,101333.84
2023-02-19T09:45:24.300Z,101338.59
2023-02-19T09:47:55.680Z,101338.88
2023-02-19T09:50:33.237Z,101345.91
2023-02-19T09:53:05.854Z,101332.09
2023-02-19T09:55:36.258Z,101349.84
2023-02-19T09:58:16.065Z,101340.75
2023-02-19T10:00:43.996Z,101347.91
2023-02-19T10:03:15.726Z,101363.88
2023-02-19T10:05:43.794Z,101366.16
2023-02-19T10:08:18.757Z,101351.00
2023-02-19T10:10:46.747Z,101351.72
2023-02-19T10:13:20.351Z,101350.41
2023-02-19T10:15:50.934Z,101343.88
2023-02-19T10:18:24.605Z,101346.47
2023-02-19T10:20:53.802Z,101336.63
2023-02-19T10:23:23.288Z,101338.69
2023-02-19T10:25:57.020Z,101347.47
2023-02-19T10:28:27.874Z,101351.03
2023-02-19T10:30:58.026Z,101347.56
2023-02-19T10:33:26.592Z,101349.97
2023-02-19T10:35:59.672Z,101347.50
2023-02-19T10:38:31.751Z,101349.53
2023-02-19T10:41:06.406Z,101369.31
2023-02-19T10:43:39.768Z,101353.56
2023-02-19T10:46:09.559Z,101357.97
2023-02-19T10:48:41.944Z,101351.97
2023-02-19T10:51:12.398Z,101353.81
2023-02-19T10:53:45.194Z,101355.78
2023-02-19T10:56:16.075Z,101358.38
2023-02-19T10:58:47.192Z,101367.22
2023-02-19T11:01:20.671Z,101364.09
2023-02-19T11:03:49.501Z,101374.78
2023-02-19T11:06:22.575Z,101397.00
2023-02-19T11:08:57.219Z,101390.00
2023-02-19T11:11:29.448Z,101399.41
2023-02-19T11:13:58.570Z,101399.66
2023-02-19T11:16:40.193Z,101406.25
2023-02-19T11:19:21.875Z,101394.16
2023-02-19T11:21:50.214Z,101401.94
2023-02-19T11:24:26.096Z,101403.34
2023-02-19T11:26:54.401Z,101396.06
2023-02-19T11:29:24.591Z,101397.50
2023-02-19T11:31:52.593Z,101405.03
2023-02-19T11:34:30.386Z,101386.50
2023-02-19T11:37:13.428Z,101393.94
2023-02-19T11:39:44.437Z,101390.44
2023-02-19T11:42:29.499Z,101390.69
2023-02-19T11:45:13.149Z,101406.53
2023-02-19T11:48:11.882Z,101416.34
2023-02-19T11:50:53.795Z,101417.13
2023-02-19T11:53:27.616Z,101411.41
2023-02-19T11:56:11.506Z,101417.03
2023-02-19T11:58:52.735Z,101412.44
2023-02-19T12:01:26.873Z,101416.47
2023-02-19T12:04:20.375Z,101420.88
2023-02-19T12:06:59.837Z,101427.16
2023-02-19T12:09:52.713Z,101424.16
2023-02-19T12:12:33.014Z,101424.28
2023-02-19T12:15:20.960Z,101423.63
2023-02-19T12:18:10.547Z,101427.06
2023-02-19T12:20:50.805Z,101425.16
2023-02-19T12:23:57.595Z,101422.25
2023-02-19T12:26:30.188Z,101409.38
2023-02-19T12:29:17.863Z,101407.41
2023-02-19T12:32:22.522Z,101394.50
2023-02-19T12:35:24.081Z,101394.09
2023-02-19T12:37:58.351Z,101391.63
2023-02-19T12:40:39.157Z,101388.25
2023-02-19T12:43:16.069Z,101395.59
2023-02-19T12:45:52.228Z,101395.56
2023-02-19T12:48:28.893Z,101397.94
2023-02-19T12:50:59.720Z,101390.25
2023-02-19T12:53:42.878Z,101404.81
2023-02-19T12:56:17.997Z,101409.91
2023-02-19T12:58:49.945Z,101396.50
2023-02-19T13:01:23.396Z,101396.03
2023-02-19T13:03:54.767Z,101394.88
2023-02-19T13:06:34.230Z,101386.00
2023-02-19T13:09:08.654Z,101382.13
2023-02-19T13:11:41.200Z,101393.78
2023-02-19T13:14:17.893Z,101391.91
2023-02-19T13:16:50.928Z,101392.91
2023-02-19T13:19:18.883Z,101387.22
2023-02-19T13:22:15.250Z,101387.66
2023-02-19T13:24:46.241Z,101382.91
2023-02-19T13:30:35.861Z,101371.56
2023-02-19T13:33:19.215Z,101371.53
2023-02-19T13:36:06.068Z,101368.59
2023-02-19T13:38:34.984Z,101373.38
2023-02-19T13:41:03.057Z,101368.41
2023-02-19T13:43:34.849Z,101370.56
2023-02-19T13:46:06.496Z,101372.22
2023-02-19T13:48:37.426Z,101379.47
2023-02-19T13:51:41.638Z,101380.75
2023-02-19T13:54:22.199Z,101385.84
2023-02-19T13:56:50.383Z,101380.50
2023-02-19T13:59:26.417Z,101386.84
2023-02-19T14:02:36.074Z,101397.59
2023-02-19T14:05:08.509Z,101388.72
2023-02-19T14:07:48.504Z,101390.75
2023-02-19T14:10:58.698Z,101410.06
2023-02-19T14:13:59.182Z,101414.41
2023-02-19T14:16:49.428Z,101416.75
2023-02-19T14:19:37.908Z,101421.78
2023-02-19T14:22:39.069Z,101424.00
2023-02-19T14:25:22.233Z,101428.13
2023-02-19T14:27:50.663Z,101430.38
2023-02-19T14:30:18.872Z,101425.63
2023-02-19T14:32:51.021Z,101429.91
2023-02-19T14:35:20.016Z,101426.25
2023-02-19T14:37:49.262Z,101435.97
2023-02-19T14:40:37.755Z,101433.22
2023-02-19T14:43:07.545Z,101426.13
2023-02-19T14:45:44.245Z,101432.16
2023-02-19T14:48:19.141Z,101435.25
2023-02-19T14:50:51.621Z,101442.44
2023-02-19T14:53:23.590Z,101438.25
2023-02-19T14:55:54.333Z,101436.56
2023-02-19T14:58:25.742Z,101425.81
2023-02-19T15:00:53.590Z,101421.75
2023-02-19T15:03:34.458Z,101426.25
2023-02-19T15:06:05.746Z,101433.13
2023-02-19T15:08:40.765Z,101434.25
2023-02-19T15:11:15.541Z,101432.13
2023-02-19T15:13:45.715Z,101435.72
2023-02-19T15:16:19.234Z,101428.38
2023-02-19T15:18:48.177Z,101436.78
2023-02-19T15:21:24.558Z,101441.28
2023-02-19T15:23:55.232Z,101440.44
2023-02-19T15:26:36.132Z,101441.88
2023-02-19T15:29:09.854Z,101467.88
2023-02-19T15:31:37.751Z,101471.28
2023-02-19T15:34:16.123Z,101481.28
2023-02-19T15:36:43.870Z,101478.78
2023-02-19T15:39:20.272Z,101484.47
2023-02-19T15:41:58.490Z,101478.44
2023-02-19T15:44:41.417Z,101478.44
2023-02-19T15:47:19.715Z,101478.06
2023-02-19T15:49:54.506Z,101479.47
2023-02-19T15:52:31.401Z,101483.09
2023-02-19T15:55:04.611Z,101491.38
2023-02-19T15:57:39.048Z,101495.19
2023-02-19T16:00:15.793Z,101490.16
2023-02-19T16:02:43.929Z,101491.84
2023-02-19T16:05:17.806Z,101498.84
2023-02-19T16:07:45.417Z,101487.09
2023-02-19T16:10:21.555Z,101488.06
2023-02-19T16:13:01.818Z,101482.03
2023-02-19T16:15:31.897Z,101478.38
2023-02-19T16:18:00.206Z,101475.59
2023-02-19T16:20:30.620Z,101465.53
2023-02-19T16:23:02.575Z,101474.06
2023-02-19T16:25:36.573Z,101471.84
2023-02-19T16:28:14.021Z,101469.06
2023-02-19T16:30:42.680Z,101469.91
2023-02-19T16:33:22.326Z,101464.97
2023-02-19T16:35:52.279Z,101477.91
2023-02-19T16:38:21.787Z,101467.25
2023-02-19T16:41:11.770Z,101465.16
2023-02-19T16:43:42.280Z,101469.78
2023-02-19T16:46:12.698Z,101473.41
2023-02-19T16:48:40.545Z,101465.53
2023-02-19T16:51:09.598Z,101464.84
2023-02-19T16:53:37.808Z,101473.13
2023-02-19T16:56:05.988Z,101485.16
2023-02-19T16:58:33.672Z,101483.06
2023-02-19T17:01:02.880Z,101487.97
2023-02-19T17:03:30.625Z,101492.31
2023-02-19T17:05:58.348Z,101502.81
2023-02-19T17:08:35.275Z,101499.91
2023-02-19T17:11:05.191Z,101500.75
2023-02-19T17:13:32.913Z,101512.13
2023-02-19T17:16:02.362Z,101513.25
2023-02-19T17:18:30.418Z,101523.03
2023-02-19T17:21:03.197Z,101521.06
2023-02-19T17:23:30.876Z,101526.38
2023-02-19T17:25:58.560Z,101535.75
2023-02-19T17:28:26.204Z,101540.09
2023-02-19T17:30:53.792Z,101555.09
2023-02-19T17:33:22.872Z,101556.66
2023-02-19T17:35:50.531Z,101565.22
2023-02-19T17:38:18.360Z,101552.16
2023-02-19T17:40:46.117Z,101553.84
2023-02-19T17:43:14.637Z,101568.41
2023-02-19T17:45:42.587Z,101574.28
2023-02-19T17:48:13.202Z,101579.34
2023-02-19T17:50:43.137Z,101581.31
2023-02-19T17:53:10.832Z,101577.66
2023-02-19T17:55:38.416Z,101579.34
2023-02-19T17:58:06.106Z,101589.16
2023-02-19T18:00:35.241Z,101595.59
2023-02-19T18:03:03.140Z,101598.97
2023-02-19T18:05:31.485Z,101587.88
2023-02-19T18:08:00.630Z,101597.28
2023-02-19T18:10:28.411Z,101603.31
2023-02-19T18:12:56.117Z,101606.25
2023-02-19T18:15:26.721Z,101606.50
2023-02-19T18:17:55.638Z,101613.78
2023-02-19T18:20:25.325Z,101615.19
2023-02-19T18:22:53.641Z,101620.78
2023-02-19T18:25:23.647Z,101632.28
2023-02-19T18:27:51.640Z,101638.56
2023-02-19T18:30:22.517Z,101640.84
2023-02-19T18:32:50.554Z,101651.38
2023-02-19T18:35:20.346Z,101650.06
2023-02-19T18:37:51.403Z,101657.09
2023-02-19T18:40:19.945Z,101654.69
2023-02-19T18:42:49.040Z,101652.41
2023-02-19T18:45:18.621Z,101657.81
2023-02-19T18:47:47.408Z,101659.72
2023-02-19T18:50:16.273Z,101651.47
2023-02-19T18:52:44.036Z,101657.63
2023-02-19T18:55:12.819Z,101654.84
2023-02-19T18:57:40.893Z,101649.50
2023-02-19T19:00:10.914Z,101647.16
2023-02-19T19:02:48.796Z,101650.53
2023-02-19T19:05:18.453Z,101651.50
2023-02-19T19:07:46.240Z,101647.63
2023-02-19T19:10:14.775Z,101648.72
2023-02-19T19:12:42.650Z,101642.84
2023-02-19T19:15:11.901Z,101642.13
2023-02-19T19:17:40.448Z,101641.16
2023-02-19T19:20:09.365Z,101653.19
2023-02-19T19:22:37.137Z,101650.16
2023-02-19T19:25:05.587Z,101645.94
2023-02-19T19:27:33.354Z,101657.28
2023-02-19T19:30:01.244Z,101654.16
2023-02-19T19:32:30.419Z,101655.44
2023-02-19T19:34:58.668Z,101644.66
2023-02-19T19:37:28.476Z,101657.69
2023-02-19T19:39:56.896Z,101656.56
2023-02-19T19:42:24.829Z,101649.56
2023-02-19T19:44:52.756Z,101649.56
2023-02-19T19:47:20.598Z,101656.81
2023-02-19T19:49:49.654Z,101654.16
2023-02-19T19:52:17.439Z,101659.50
2023-02-19T19:54:45.602Z,101657.81
2023-02-19T19:57:13.945Z,101666.78
2023-02-19T19:59:41.956Z,101659.66
2023-02-19T20:02:13.688Z,101661.25
2023-02-19T20:04:43.673Z,101659.84
2023-02-19T20:07:12.711Z,101658.16
2023-02-19T20:09:40.476Z,101649.47
2023-02-19T20:12:08.656Z,101644.00
2023-02-19T20:14:36.324Z,101642.56
2023-02-19T20:17:04.103Z,101641.38
2023-02-19T20:19:31.928Z,101653.56
2023-02-19T20:21:59.621Z,101652.59
2023-02-19T20:24:29.687Z,101665.91
2023-02-19T20:26:59.500Z,101669.41
2023-02-19T20:29:28.963Z,101675.16
2023-02-19T20:31:59.192Z,101681.47
2023-02-19T20:34:27.560Z,101685.00
2023-02-19T20:36:55.613Z,101680.47
2023-02-19T20:39:28.625Z,101673.50
2023-02-19T20:41:59.333Z,101681.31
2023-02-19T20:44:27.722Z,101682.63
2023-02-19T20:46:56.616Z,101684.00
2023-02-19T20:49:26.498Z,101677.13
2023-02-19T20:51:55.959Z,101683.53
2023-02-19T20:54:26.055Z,101682.56
2023-02-19T20:56:56.230Z,101689.72
2023-02-19T20:59:30.505Z,101684.66
2023-02-19T21:01:58.609Z,101694.56
2023-02-19T21:04:26.753Z,101687.94
2023-02-19T21:06:54.505Z,101692.19
2023-02-19T21:09:23.641Z,101689.44
2023-02-19T21:11:53.022Z,101688.84
2023-02-19T21:14:21.018Z,101683.41
2023-02-19T21:16:50.258Z,101680.03
2023-02-19T21:19:17.986Z,101693.94
2023-02-19T21:21:45.789Z,101697.88
2023-02-19T21:24:14.580Z,101694.88
2023-02-19T21:26:43.595Z,101699.97
2023-02-19T21:29:15.556Z,101691.00
2023-02-19T21:31:45.227Z,101691.00
2023-02-19T21:34:16.328Z,101687.38
2023-02-19T21:36:44.402Z,101692.44
2023-02-19T21:39:15.080Z,101695.81
2023-02-19T21:41:42.749Z,101701.38
2023-02-19T21:44:10.473Z,101715.63
2023-02-19T21:46:41.876Z,101719.75
2023-02-19T21:49:09.704Z,101719.50
2023-02-19T21:51:40.415Z,101724.28
2023-02-19T21:54:09.650Z,101717.53
2023-02-19T21:56:38.032Z,101724.41
2023-02-19T21:59:05.704Z,101727.47
2023-02-19T22:01:35.353Z,101719.34
2023-02-19T22:04:03.003Z,101723.00
2023-02-19T22:06:31.977Z,101715.59
2023-02-19T22:09:01.720Z,101708.38
2023-02-19T22:11:29.510Z,101701.38
2023-02-19T22:13:57.234Z,101704.75
2023-02-19T22:16:24.990Z,101704.50
2023-02-19T22:18:54.093Z,101713.19
2023-02-19T22:21:22.701Z,101712.22
2023-02-19T22:23:52.818Z,101711.53
2023-02-19T22:26:23.603Z,101714.88
2023-02-19T22:28:51.987Z,101714.88
2023-02-19T22:31:22.275Z,101727.19
2023-02-19T22:33:50.274Z,101723.31
2023-02-19T22:36:19.891Z,101726.94
2023-02-19T22:38:47.621Z,101719.94
2023-02-19T22:41:15.897Z,101720.66
2023-02-19T22:43:45.090Z,101719.69
2023-02-19T22:46:16.618Z,101715.59
2023-02-19T22:48:47.301Z,101721.88
2023-02-19T22:51:17.891Z,101729.13
2023-02-19T22:53:46.282Z,101738.13
2023-02-19T22:56:15.464Z,101724.09
2023-02-19T22:58:43.724Z,101729.97
2023-02-19T23:01:14.453Z,101724.53
2023-02-19T23:03:50.105Z,101727.72
2023-02-19T23:06:22.157Z,101727.97
2023-02-19T23:08:49.877Z,101732.84
2023-02-19T23:11:22.206Z,101739.84
2023-02-19T23:13:49.910Z,101747.50
2023-02-19T23:16:19.427Z,101749.56
2023-02-19T23:18:47.230Z,101734.34
2023-02-19T23:21:14.909Z,101737.69
2023-02-19T23:23:43.263Z,101739.72
2023-02-19T23:26:12.571Z,101735.50
2023-02-19T23:28:41.005Z,101728.75
2023-02-19T23:31:09.189Z,101721.47
2023-02-19T23:33:38.237Z,101732.00
2023-02-19T23:36:06.905Z,101735.50
2023-02-19T23:38:34.622Z,101743.25
2023-02-19T23:41:02.539Z,101736.22
2023-02-19T23:43:30.273Z,101743.34
2023-02-19T23:45:58.004Z,101740.09
2023-02-19T23:48:25.637Z,101749.66
2023-02-19T23:50:54.736Z,101756.06
2023-02-19T23:53:22.356Z,101764.75
2023-02-19T23:55:51.583Z,101765.47
2023-02-19T23:58:19.421Z,101765.47
